Terminal Aerodrome Forecast
Issued by NWS Charleston, WV

Home | Current Version | Previous Version | Text Only | Print | Product List | Glossary On
Versions: 1 2 3 4 5 6 7 8 9 10 11 12 13 14 15 16 17 18 19 20 21 22 23 24 25 26 27 28
000
FTUS41 KRLX 312300
TAFBKW
TAF
KBKW 312339Z 0100/0124 23004KT P6SM BKN200
     FM010300 00000KT P6SM BKN110
     FM011500 15006KT P6SM BKN110
     FM012100 16010G17KT P6SM BKN200=

USA.gov is the U.S. government's official web portal to all federal, state and local government web resources and services.